Time;durP1;ratioP1;P1;durP2;ratioP2;P2;SDS_P1;SDS_P2;PMS_P1;PMS_P2;Temp;Humidity;BMP_temperature;BMP_pressure;BME280_temperature;BME280_humidity;BME280_pressure;Samples;Min_cycle;Max_cycle;Signal;HPM_P1;HPM_P2
2024/02/28 00:01:33;;;;;;;18.75;15.75;;;;;;;;;;5057263;28;20385;-79
2024/02/28 00:03:59;;;;;;;17.75;14.73;;;;;;;;;;5057484;28;20717;-80
2024/02/28 00:06:25;;;;;;;16.98;15.05;;;;;;;;;;5057258;28;20520;-80
2024/02/28 00:08:54;;;;;;;16.83;15.05;;;;;;;;;;5057275;28;20440;-79
2024/02/28 00:11:20;;;;;;;19.20;15.40;;;;;;;;;;5056841;28;20389;-80
2024/02/28 00:13:46;;;;;;;21.23;16.33;;;;;;;;;;5056705;28;20393;-80
2024/02/28 00:16:12;;;;;;;16.08;14.40;;;;;;;;;;5043671;28;20426;-80
2024/02/28 00:18:38;;;;;;;16.53;14.73;;;;;;;;;;5036556;28;20496;-80
2024/02/28 00:21:04;;;;;;;15.65;13.98;;;;;;;;;;5036604;28;20793;-80
2024/02/28 00:23:31;;;;;;;17.23;14.55;;;;;;;;;;5036555;28;20376;-80
2024/02/28 00:25:57;;;;;;;17.30;14.77;;;;;;;;;;5036526;28;20386;-79
2024/02/28 00:28:23;;;;;;;17.37;14.77;;;;;;;;;;5036720;28;20375;-80
2024/02/28 00:30:49;;;;;;;16.80;14.82;;;;;;;;;;5036817;28;20414;-79
2024/02/28 00:33:15;;;;;;;16.83;15.02;;;;;;;;;;5036698;28;20387;-79
2024/02/28 00:35:41;;;;;;;17.13;14.55;;;;;;;;;;5042964;28;20382;-80
2024/02/28 00:38:07;;;;;;;16.27;14.65;;;;;;;;;;5056236;28;20747;-80
2024/02/28 00:40:34;;;;;;;16.17;14.48;;;;;;;;;;5056036;28;20480;-80
2024/02/28 00:43:01;;;;;;;16.65;14.95;;;;;;;;;;5056282;28;20442;-80
2024/02/28 00:45:27;;;;;;;18.98;15.32;;;;;;;;;;5056415;28;20381;-80
2024/02/28 00:47:54;;;;;;;15.60;14.00;;;;;;;;;;5055900;28;20488;-80
2024/02/28 00:50:20;;;;;;;16.13;14.18;;;;;;;;;;5056014;28;20389;-80
2024/02/28 00:52:46;;;;;;;17.13;15.25;;;;;;;;;;5056131;28;20389;-79
2024/02/28 00:55:12;;;;;;;16.83;14.25;;;;;;;;;;5054913;28;20401;-80
2024/02/28 00:57:38;;;;;;;16.37;14.63;;;;;;;;;;5055996;28;20405;-79
2024/02/28 01:00:05;;;;;;;16.30;14.30;;;;;;;;;;5055962;28;20468;-80
2024/02/28 01:02:32;;;;;;;16.30;14.03;;;;;;;;;;5056402;28;20397;-80
2024/02/28 01:04:58;;;;;;;14.82;13.32;;;;;;;;;;5056098;28;21037;-80
2024/02/28 01:07:24;;;;;;;15.20;13.63;;;;;;;;;;5056184;28;20460;-80
2024/02/28 01:09:50;;;;;;;15.73;14.07;;;;;;;;;;5056110;28;20452;-79
2024/02/28 01:12:16;;;;;;;15.95;14.07;;;;;;;;;;5055975;28;20421;-80
2024/02/28 01:14:42;;;;;;;15.75;13.73;;;;;;;;;;5055565;28;20744;-79
2024/02/28 01:17:08;;;;;;;16.08;14.18;;;;;;;;;;5055717;28;20435;-79
2024/02/28 01:19:34;;;;;;;16.75;13.93;;;;;;;;;;5056055;28;20420;-79
2024/02/28 01:22:00;;;;;;;14.93;13.43;;;;;;;;;;5055932;28;20384;-79
2024/02/28 01:24:26;;;;;;;15.38;13.75;;;;;;;;;;5055093;28;20468;-79
2024/02/28 01:26:52;;;;;;;14.35;12.85;;;;;;;;;;5055877;28;20378;-79
2024/02/28 01:29:18;;;;;;;15.18;12.77;;;;;;;;;;5055017;28;20802;-80
2024/02/28 01:31:44;;;;;;;13.93;12.60;;;;;;;;;;5055368;28;20425;-80
2024/02/28 01:34:10;;;;;;;15.50;13.88;;;;;;;;;;5055410;28;20412;-80
2024/02/28 01:36:36;;;;;;;14.60;13.07;;;;;;;;;;5056157;28;20411;-79
2024/02/28 01:39:03;;;;;;;14.60;13.10;;;;;;;;;;5055436;28;20381;-80
2024/02/28 01:41:29;;;;;;;15.27;13.68;;;;;;;;;;5055776;28;20378;-80
2024/02/28 01:43:55;;;;;;;15.32;13.73;;;;;;;;;;5055711;28;20777;-80
2024/02/28 01:46:23;;;;;;;14.50;13.00;;;;;;;;;;5054840;28;20388;-79
2024/02/28 01:48:49;;;;;;;14.57;13.10;;;;;;;;;;5055150;28;20725;-79
2024/02/28 01:51:16;;;;;;;14.60;13.10;;;;;;;;;;5055160;28;20435;-79
2024/02/28 01:53:42;;;;;;;15.30;13.55;;;;;;;;;;5056104;28;20434;-79
2024/02/28 01:56:08;;;;;;;14.10;12.65;;;;;;;;;;5055435;28;20401;-79
2024/02/28 01:58:35;;;;;;;14.45;12.80;;;;;;;;;;5055272;28;20393;-80
2024/02/28 02:01:01;;;;;;;14.77;13.27;;;;;;;;;;5055214;28;20377;-79
2024/02/28 02:03:27;;;;;;;14.43;12.95;;;;;;;;;;5055465;28;20851;-79
2024/02/28 02:05:53;;;;;;;16.50;14.20;;;;;;;;;;5055311;28;20377;-79
2024/02/28 02:08:19;;;;;;;15.80;13.40;;;;;;;;;;5054812;28;20782;-79
2024/02/28 02:10:45;;;;;;;14.57;13.10;;;;;;;;;;5055208;28;20457;-79
2024/02/28 02:13:11;;;;;;;15.05;13.45;;;;;;;;;;5052606;28;20419;-79
2024/02/28 02:15:38;;;;;;;14.95;13.35;;;;;;;;;;5055217;28;20389;-79
2024/02/28 02:18:04;;;;;;;14.68;13.18;;;;;;;;;;5055329;28;20401;-80
2024/02/28 02:20:31;;;;;;;14.68;13.13;;;;;;;;;;5055272;28;20388;-79
2024/02/28 02:22:57;;;;;;;14.47;12.90;;;;;;;;;;5055681;28;20384;-79
2024/02/28 02:25:23;;;;;;;14.95;13.35;;;;;;;;;;5055282;28;20381;-80
2024/02/28 02:27:49;;;;;;;14.93;13.48;;;;;;;;;;5055145;28;20465;-79
2024/02/28 02:30:15;;;;;;;15.30;13.55;;;;;;;;;;5055516;28;20378;-79
2024/02/28 02:32:41;;;;;;;14.53;13.03;;;;;;;;;;5055264;28;20385;-79
2024/02/28 02:35:07;;;;;;;14.25;12.85;;;;;;;;;;5051942;28;20385;-80
2024/02/28 02:37:34;;;;;;;15.13;13.52;;;;;;;;;;5054970;28;20854;-79
2024/02/28 02:40:00;;;;;;;14.35;13.05;;;;;;;;;;5054460;28;20831;-79
2024/02/28 02:42:26;;;;;;;14.35;12.82;;;;;;;;;;5055250;28;20412;-79
2024/02/28 02:44:52;;;;;;;13.95;12.50;;;;;;;;;;5054484;28;20374;-81
2024/02/28 02:47:18;;;;;;;14.55;13.05;;;;;;;;;;5054685;28;20393;-81
2024/02/28 02:49:44;;;;;;;14.83;13.00;;;;;;;;;;5054584;28;20385;-81
2024/02/28 02:52:10;;;;;;;14.52;13.02;;;;;;;;;;5055210;28;20388;-80
2024/02/28 02:54:37;;;;;;;14.55;13.13;;;;;;;;;;5055052;28;20389;-81
2024/02/28 02:57:03;;;;;;;14.10;12.73;;;;;;;;;;5055773;28;20790;-81
2024/02/28 02:59:29;;;;;;;14.70;13.20;;;;;;;;;;5058464;28;20378;-81
2024/02/28 03:01:55;;;;;;;14.80;13.30;;;;;;;;;;5058837;28;20870;-81
2024/02/28 03:04:21;;;;;;;14.50;13.00;;;;;;;;;;5058293;28;20380;-81
2024/02/28 03:06:47;;;;;;;14.25;12.80;;;;;;;;;;5058858;28;20373;-81
2024/02/28 03:09:13;;;;;;;14.20;12.70;;;;;;;;;;5057627;28;20914;-80
2024/02/28 03:11:39;;;;;;;13.63;12.32;;;;;;;;;;5058493;28;20427;-80
2024/02/28 03:14:05;;;;;;;14.43;12.93;;;;;;;;;;5058115;28;20373;-80
2024/02/28 03:16:31;;;;;;;14.15;12.65;;;;;;;;;;5058068;28;20405;-80
2024/02/28 03:18:57;;;;;;;14.20;12.80;;;;;;;;;;5058061;28;20388;-80
2024/02/28 03:21:23;;;;;;;15.33;12.83;;;;;;;;;;5057901;28;20383;-80
2024/02/28 03:23:49;;;;;;;14.20;12.70;;;;;;;;;;5058298;28;20409;-80
2024/02/28 03:26:15;;;;;;;14.88;13.15;;;;;;;;;;5057872;28;20407;-80
2024/02/28 03:28:41;;;;;;;13.73;12.35;;;;;;;;;;5057358;28;20409;-80
2024/02/28 03:31:07;;;;;;;14.77;13.23;;;;;;;;;;5058283;28;20404;-81
2024/02/28 03:33:35;;;;;;;14.25;12.85;;;;;;;;;;5057723;28;20381;-80
2024/02/28 03:36:01;;;;;;;14.57;13.10;;;;;;;;;;5057926;28;20385;-80
2024/02/28 03:38:27;;;;;;;14.40;12.63;;;;;;;;;;5057822;28;20386;-80
2024/02/28 03:40:53;;;;;;;13.90;12.50;;;;;;;;;;5056555;28;20386;-80
2024/02/28 03:43:19;;;;;;;13.90;12.50;;;;;;;;;;5057477;28;20382;-80
2024/02/28 03:45:45;;;;;;;14.93;13.32;;;;;;;;;;5056257;28;20386;-81
2024/02/28 03:48:11;;;;;;;14.55;13.05;;;;;;;;;;5056892;28;20405;-80
2024/02/28 03:50:37;;;;;;;15.73;14.10;;;;;;;;;;5057600;28;20455;-80
2024/02/28 03:53:03;;;;;;;15.73;13.98;;;;;;;;;;5057483;28;20819;-81
2024/02/28 03:55:30;;;;;;;15.88;14.10;;;;;;;;;;5057367;28;20385;-80
2024/02/28 03:57:56;;;;;;;17.33;13.75;;;;;;;;;;5057503;28;20405;-80
2024/02/28 04:00:22;;;;;;;15.48;13.88;;;;;;;;;;5057679;28;20377;-80
2024/02/28 04:02:48;;;;;;;15.45;13.85;;;;;;;;;;5057167;28;20451;-81
2024/02/28 04:05:14;;;;;;;16.70;14.13;;;;;;;;;;5057189;28;20758;-80
2024/02/28 04:07:40;;;;;;;15.30;13.65;;;;;;;;;;5056983;28;20373;-80
2024/02/28 04:10:06;;;;;;;15.35;13.75;;;;;;;;;;5056296;28;20771;-80
2024/02/28 04:12:32;;;;;;;17.40;14.23;;;;;;;;;;5057471;28;20447;-80
2024/02/28 04:14:58;;;;;;;16.93;13.77;;;;;;;;;;5056221;28;20390;-80
2024/02/28 04:17:24;;;;;;;14.77;13.27;;;;;;;;;;5038153;28;20407;-80
2024/02/28 04:19:50;;;;;;;16.15;14.05;;;;;;;;;;5037110;28;20861;-80
2024/02/28 04:22:16;;;;;;;13.98;12.57;;;;;;;;;;5037415;28;20473;-80
2024/02/28 04:24:42;;;;;;;14.43;12.93;;;;;;;;;;5037146;28;20391;-80
2024/02/28 04:27:11;;;;;;;15.20;13.60;;;;;;;;;;5036769;28;20390;-80
2024/02/28 04:29:37;;;;;;;14.50;13.00;;;;;;;;;;5039222;28;20774;-80
2024/02/28 04:32:03;;;;;;;15.05;13.48;;;;;;;;;;5037056;28;20413;-80
2024/02/28 04:34:29;;;;;;;14.40;12.98;;;;;;;;;;5036966;28;20788;-81
2024/02/28 04:36:55;;;;;;;13.82;12.43;;;;;;;;;;5036816;28;20399;-80
2024/02/28 04:39:20;;;;;;;15.13;13.20;;;;;;;;;;5036607;28;20394;-80
2024/02/28 04:41:46;;;;;;;14.27;12.77;;;;;;;;;;5036293;28;20779;-81
2024/02/28 04:44:12;;;;;;;13.70;12.30;;;;;;;;;;5036316;28;20387;-81
2024/02/28 04:46:38;;;;;;;13.32;11.98;;;;;;;;;;5035033;28;20384;-80
2024/02/28 04:49:05;;;;;;;13.20;11.90;;;;;;;;;;5036275;28;20533;-80
2024/02/28 04:51:31;;;;;;;13.02;11.73;;;;;;;;;;5036765;28;20398;-81
2024/02/28 04:53:56;;;;;;;14.48;13.07;;;;;;;;;;5036327;28;20391;-80
2024/02/28 04:56:23;;;;;;;13.63;12.23;;;;;;;;;;5047602;28;20478;-80
2024/02/28 04:58:49;;;;;;;14.32;12.70;;;;;;;;;;5056208;28;20382;-80
2024/02/28 05:01:15;;;;;;;13.63;12.23;;;;;;;;;;5056035;28;20465;-80
2024/02/28 05:03:41;;;;;;;13.90;12.50;;;;;;;;;;5056227;28;20740;-80
2024/02/28 05:06:07;;;;;;;15.63;13.97;;;;;;;;;;5055090;28;20384;-80
2024/02/28 05:08:33;;;;;;;17.67;15.20;;;;;;;;;;5055735;28;20400;-80
2024/02/28 05:10:59;;;;;;;14.15;12.55;;;;;;;;;;5055875;28;20465;-80
2024/02/28 05:13:25;;;;;;;13.30;12.00;;;;;;;;;;5056042;28;20774;-80
2024/02/28 05:15:51;;;;;;;13.25;11.85;;;;;;;;;;5055707;28;20389;-80
2024/02/28 05:18:17;;;;;;;13.00;11.70;;;;;;;;;;5054405;28;20875;-80
2024/02/28 05:20:43;;;;;;;13.25;11.95;;;;;;;;;;5054583;28;20381;-81
2024/02/28 05:23:09;;;;;;;13.55;12.07;;;;;;;;;;5054292;28;20397;-80
2024/02/28 05:25:35;;;;;;;13.18;11.88;;;;;;;;;;5055767;28;20404;-81
2024/02/28 05:28:02;;;;;;;15.37;13.17;;;;;;;;;;5055292;28;20456;-80
2024/02/28 05:30:28;;;;;;;13.30;11.98;;;;;;;;;;5055115;28;20385;-80
2024/02/28 05:32:54;;;;;;;13.73;12.18;;;;;;;;;;5054556;28;20420;-80
2024/02/28 05:35:20;;;;;;;12.95;11.65;;;;;;;;;;5055848;28;20386;-80
2024/02/28 05:37:46;;;;;;;12.70;11.50;;;;;;;;;;5055743;28;20949;-80
2024/02/28 05:40:12;;;;;;;12.27;10.98;;;;;;;;;;5055469;28;20389;-80
2024/02/28 05:42:39;;;;;;;13.07;11.57;;;;;;;;;;5055117;28;20373;-81
2024/02/28 05:45:06;;;;;;;12.98;11.77;;;;;;;;;;5055151;28;20423;-80
2024/02/28 05:47:32;;;;;;;12.30;11.13;;;;;;;;;;5054821;28;20416;-81
2024/02/28 05:49:58;;;;;;;12.48;11.18;;;;;;;;;;5055175;28;20409;-80
2024/02/28 05:52:25;;;;;;;12.48;11.27;;;;;;;;;;5055095;28;20413;-81
2024/02/28 05:54:51;;;;;;;11.70;10.55;;;;;;;;;;5055314;28;20394;-80
2024/02/28 05:57:17;;;;;;;12.97;11.67;;;;;;;;;;5055349;28;20416;-80
2024/02/28 05:59:43;;;;;;;12.65;11.40;;;;;;;;;;5055098;28;20374;-80
2024/02/28 06:02:09;;;;;;;12.82;11.40;;;;;;;;;;5055975;28;20400;-81
2024/02/28 06:04:35;;;;;;;12.70;11.40;;;;;;;;;;5055085;28;20420;-81
2024/02/28 06:07:01;;;;;;;13.25;11.48;;;;;;;;;;5054980;28;20393;-80
2024/02/28 06:09:30;;;;;;;12.70;11.40;;;;;;;;;;5053608;28;20866;-80
2024/02/28 06:11:56;;;;;;;16.33;14.38;;;;;;;;;;5054187;28;20396;-80
2024/02/28 06:14:22;;;;;;;14.38;12.75;;;;;;;;;;5054259;28;20393;-80
2024/02/28 06:16:48;;;;;;;12.98;11.60;;;;;;;;;;5054861;28;20409;-80
2024/02/28 06:19:14;;;;;;;12.73;11.43;;;;;;;;;;5055022;28;20794;-80
2024/02/28 06:21:40;;;;;;;13.05;11.65;;;;;;;;;;5055203;28;20415;-81
2024/02/28 06:24:06;;;;;;;12.27;11.05;;;;;;;;;;5055442;28;20450;-80
2024/02/28 06:26:32;;;;;;;19.52;15.38;;;;;;;;;;5054677;28;20855;-81
2024/02/28 06:29:01;;;;;;;13.37;11.83;;;;;;;;;;5055660;28;20377;-81
2024/02/28 06:31:29;;;;;;;13.15;11.38;;;;;;;;;;5051964;28;20416;-80
2024/02/28 06:33:55;;;;;;;16.50;11.90;;;;;;;;;;5059217;28;20377;-80
2024/02/28 06:36:21;;;;;;;12.20;11.00;;;;;;;;;;5059832;28;20417;-81
2024/02/28 06:38:47;;;;;;;13.23;11.82;;;;;;;;;;5059712;28;20530;-81
2024/02/28 06:41:13;;;;;;;14.32;11.63;;;;;;;;;;5059968;28;20903;-81
2024/02/28 06:43:39;;;;;;;11.85;10.70;;;;;;;;;;5059704;28;20373;-81
2024/02/28 06:46:05;;;;;;;14.13;11.25;;;;;;;;;;5058898;28;20377;-81
2024/02/28 06:48:31;;;;;;;11.97;10.67;;;;;;;;;;5058739;28;20431;-81
2024/02/28 06:50:57;;;;;;;12.40;11.20;;;;;;;;;;5058297;28;20382;-81
2024/02/28 06:53:24;;;;;;;12.57;11.30;;;;;;;;;;5059229;28;20377;-81
2024/02/28 06:55:50;;;;;;;12.55;11.25;;;;;;;;;;5059502;28;20903;-81
2024/02/28 06:58:16;;;;;;;12.70;11.32;;;;;;;;;;5058746;28;20899;-81
2024/02/28 07:00:42;;;;;;;15.55;12.38;;;;;;;;;;5058959;28;20427;-81
2024/02/28 07:03:08;;;;;;;12.15;10.95;;;;;;;;;;5057107;28;20483;-81
2024/02/28 07:05:34;;;;;;;13.48;12.07;;;;;;;;;;5058266;28;20385;-81
2024/02/28 07:08:00;;;;;;;12.63;11.43;;;;;;;;;;5058688;28;20394;-81
2024/02/28 07:10:26;;;;;;;11.85;10.65;;;;;;;;;;5058434;28;20894;-81
2024/02/28 07:12:52;;;;;;;13.00;11.07;;;;;;;;;;5058144;28;20385;-81
2024/02/28 07:15:21;;;;;;;12.48;11.18;;;;;;;;;;5057812;28;20385;-81
2024/02/28 07:17:47;;;;;;;12.57;11.02;;;;;;;;;;5058110;28;20427;-81
2024/02/28 07:20:13;;;;;;;11.95;10.68;;;;;;;;;;5057951;28;20736;-81
2024/02/28 07:22:39;;;;;;;11.82;10.60;;;;;;;;;;5058080;28;20386;-80
2024/02/28 07:25:07;;;;;;;10.88;9.77;;;;;;;;;;5057607;28;20420;-81
2024/02/28 07:27:33;;;;;;;11.68;10.48;;;;;;;;;;5057951;28;20381;-81
2024/02/28 07:29:59;;;;;;;11.60;10.43;;;;;;;;;;5058140;28;20420;-81
2024/02/28 07:32:25;;;;;;;11.82;10.63;;;;;;;;;;5057386;28;20400;-81
2024/02/28 07:34:51;;;;;;;12.35;10.73;;;;;;;;;;5057622;28;20385;-81
2024/02/28 07:37:17;;;;;;;12.88;11.48;;;;;;;;;;5057361;28;20409;-81
2024/02/28 07:39:43;;;;;;;14.30;12.80;;;;;;;;;;5057766;28;20549;-81
2024/02/28 07:42:09;;;;;;;13.90;12.50;;;;;;;;;;5057763;28;20419;-80
2024/02/28 07:44:35;;;;;;;14.23;12.60;;;;;;;;;;5056847;28;20381;-81
2024/02/28 07:47:01;;;;;;;15.15;12.75;;;;;;;;;;5057881;28;20381;-81
2024/02/28 07:49:27;;;;;;;13.10;11.80;;;;;;;;;;5057676;28;20488;-81
2024/02/28 07:51:53;;;;;;;13.70;12.40;;;;;;;;;;5057081;28;20385;-81
2024/02/28 07:54:19;;;;;;;13.95;12.45;;;;;;;;;;5057574;28;20441;-81
2024/02/28 07:56:45;;;;;;;14.17;12.40;;;;;;;;;;5057630;28;20457;-81
2024/02/28 07:59:11;;;;;;;12.80;11.50;;;;;;;;;;5057118;28;20430;-82
2024/02/28 08:01:39;;;;;;;13.50;12.18;;;;;;;;;;5051312;28;20406;-80
2024/02/28 08:04:05;;;;;;;13.30;12.05;;;;;;;;;;5036733;28;20386;-80
2024/02/28 08:06:33;;;;;;;13.35;11.90;;;;;;;;;;5037009;28;20387;-81
2024/02/28 08:08:59;;;;;;;16.85;12.93;;;;;;;;;;5051810;28;20373;-80
2024/02/28 08:11:25;;;;;;;13.13;11.60;;;;;;;;;;5056909;28;20442;-80
2024/02/28 08:13:52;;;;;;;13.52;12.05;;;;;;;;;;5057124;28;20404;-80
2024/02/28 08:16:18;;;;;;;12.82;11.63;;;;;;;;;;5057251;28;20755;-80
2024/02/28 08:18:44;;;;;;;13.20;11.90;;;;;;;;;;5057021;28;20435;-80
2024/02/28 08:21:10;;;;;;;13.85;12.45;;;;;;;;;;5057030;28;20370;-80
2024/02/28 08:23:36;;;;;;;13.15;11.82;;;;;;;;;;5057349;28;20800;-81
2024/02/28 08:26:03;;;;;;;14.35;12.57;;;;;;;;;;5057188;28;20381;-81
2024/02/28 08:28:29;;;;;;;14.05;12.38;;;;;;;;;;5056707;28;20386;-81
2024/02/28 08:30:55;;;;;;;16.13;13.35;;;;;;;;;;5057067;28;20386;-80
2024/02/28 08:33:21;;;;;;;15.02;13.43;;;;;;;;;;5057096;28;20394;-81
2024/02/28 08:35:49;;;;;;;15.30;13.48;;;;;;;;;;5055967;28;20396;-80
2024/02/28 08:38:15;;;;;;;14.90;13.03;;;;;;;;;;5054255;28;20768;-81
2024/02/28 08:40:41;;;;;;;14.15;12.63;;;;;;;;;;5055374;28;20382;-80
2024/02/28 08:43:07;;;;;;;13.82;12.43;;;;;;;;;;5056469;28;20746;-81
2024/02/28 08:45:34;;;;;;;14.37;12.70;;;;;;;;;;5056116;28;20427;-80
2024/02/28 08:48:01;;;;;;;14.25;12.57;;;;;;;;;;5056521;28;20484;-81
2024/02/28 08:50:28;;;;;;;13.82;12.40;;;;;;;;;;5056570;28;20396;-80
2024/02/28 08:52:54;;;;;;;17.83;13.52;;;;;;;;;;5056272;28;20381;-81
2024/02/28 08:55:21;;;;;;;14.75;12.98;;;;;;;;;;5056431;28;20831;-81
2024/02/28 08:57:47;;;;;;;15.23;13.63;;;;;;;;;;5055698;28;20496;-81
2024/02/28 09:00:15;;;;;;;17.40;14.10;;;;;;;;;;5056529;28;20382;-80
2024/02/28 09:02:41;;;;;;;14.48;13.00;;;;;;;;;;5056651;28;20381;-80
2024/02/28 09:05:08;;;;;;;15.38;13.80;;;;;;;;;;5055747;28;20443;-80
2024/02/28 09:07:35;;;;;;;15.38;12.68;;;;;;;;;;5056078;28;20393;-80
2024/02/28 09:10:04;;;;;;;14.48;12.70;;;;;;;;;;5055970;28;20390;-80
2024/02/28 09:12:30;;;;;;;14.93;12.45;;;;;;;;;;5056160;28;20404;-81
2024/02/28 09:14:57;;;;;;;14.48;12.50;;;;;;;;;;5055870;28;20879;-80
2024/02/28 09:17:23;;;;;;;14.40;12.85;;;;;;;;;;5056745;28;20402;-80
2024/02/28 09:19:51;;;;;;;14.80;13.00;;;;;;;;;;5054384;28;20402;-80
2024/02/28 09:22:17;;;;;;;15.55;13.45;;;;;;;;;;5056009;28;20754;-80
2024/02/28 09:24:43;;;;;;;15.48;13.85;;;;;;;;;;5056628;28;20384;-80
2024/02/28 09:27:09;;;;;;;15.85;14.02;;;;;;;;;;5053886;28;20424;-80
2024/02/28 09:29:35;;;;;;;14.50;13.00;;;;;;;;;;5055187;28;20731;-81
2024/02/28 09:32:02;;;;;;;16.42;13.43;;;;;;;;;;5056557;28;20393;-79
2024/02/28 09:34:27;;;;;;;14.93;12.95;;;;;;;;;;5056138;28;20460;-80
2024/02/28 09:36:53;;;;;;;14.50;12.88;;;;;;;;;;5055954;28;20909;-80
2024/02/28 09:39:21;;;;;;;15.48;12.82;;;;;;;;;;5055041;28;20377;-80
2024/02/28 09:41:51;;;;;;;14.85;13.32;;;;;;;;;;5055836;28;20446;-80
2024/02/28 09:44:17;;;;;;;13.90;12.40;;;;;;;;;;5055444;28;20370;-81
2024/02/28 09:46:43;;;;;;;14.27;12.88;;;;;;;;;;5055416;28;20400;-81
2024/02/28 09:49:09;;;;;;;15.05;13.45;;;;;;;;;;5053279;28;20417;-80
2024/02/28 09:51:36;;;;;;;15.35;13.07;;;;;;;;;;5055696;28;20381;-80
2024/02/28 09:54:03;;;;;;;14.52;13.02;;;;;;;;;;5056059;28;20386;-80
2024/02/28 09:56:29;;;;;;;15.45;13.85;;;;;;;;;;5055891;28;20413;-80
2024/02/28 09:58:56;;;;;;;16.00;13.63;;;;;;;;;;5054244;28;20439;-80
2024/02/28 10:01:26;;;;;;;87.32;50.22;;;;;;;;;;5054203;28;20381;-80
2024/02/28 10:03:52;;;;;;;16.07;14.37;;;;;;;;;;5055634;28;20738;-80
2024/02/28 10:06:19;;;;;;;22.15;18.88;;;;;;;;;;5054920;28;20373;-80
2024/02/28 10:08:47;;;;;;;16.73;14.43;;;;;;;;;;5059429;28;20477;-81
2024/02/28 10:11:17;;;;;;;17.52;14.98;;;;;;;;;;5059349;28;20850;-80
2024/02/28 10:13:43;;;;;;;20.80;16.10;;;;;;;;;;5059593;28;20411;-81
2024/02/28 10:16:09;;;;;;;20.63;16.60;;;;;;;;;;5059684;28;20392;-80
2024/02/28 10:18:35;;;;;;;20.67;17.27;;;;;;;;;;5059661;28;20386;-80
2024/02/28 10:21:03;;;;;;;18.10;16.20;;;;;;;;;;5059149;28;20389;-80
2024/02/28 10:23:29;;;;;;;18.77;16.73;;;;;;;;;;5059662;28;20382;-81
2024/02/28 10:25:55;;;;;;;22.73;19.23;;;;;;;;;;5059186;28;20400;-82
2024/02/28 10:28:21;;;;;;;19.40;16.00;;;;;;;;;;5059539;28;20770;-81
2024/02/28 10:30:47;;;;;;;24.80;19.58;;;;;;;;;;5058724;28;20392;-82
2024/02/28 10:33:14;;;;;;;25.70;19.75;;;;;;;;;;5059439;28;20442;-81
2024/02/28 10:35:42;;;;;;;20.65;16.48;;;;;;;;;;5058299;28;20390;-80
2024/02/28 10:38:10;;;;;;;21.98;17.73;;;;;;;;;;5058821;28;20902;-81
2024/02/28 10:40:36;;;;;;;20.67;17.17;;;;;;;;;;5058796;28;20389;-80
2024/02/28 10:43:04;;;;;;;46.63;28.63;;;;;;;;;;5056233;28;20451;-81
2024/02/28 10:45:31;;;;;;;21.05;17.17;;;;;;;;;;5059186;28;20369;-80
2024/02/28 10:47:58;;;;;;;22.45;17.40;;;;;;;;;;5058981;28;20401;-80
2024/02/28 10:50:24;;;;;;;29.97;23.87;;;;;;;;;;5058621;28;20404;-81
2024/02/28 10:52:51;;;;;;;20.77;16.90;;;;;;;;;;5058643;28;20783;-81
2024/02/28 10:55:24;;;;;;;19.63;16.95;;;;;;;;;;5056186;28;20756;-81
2024/02/28 10:57:56;;;;;;;21.13;17.77;;;;;;;;;;5055318;28;20401;-81
2024/02/28 11:00:22;;;;;;;22.45;17.60;;;;;;;;;;5058588;28;20420;-81
2024/02/28 11:02:49;;;;;;;21.95;17.67;;;;;;;;;;5058577;28;20453;-81
2024/02/28 11:05:15;;;;;;;22.70;18.07;;;;;;;;;;5058457;28;20420;-81
2024/02/28 11:07:42;;;;;;;21.58;17.02;;;;;;;;;;5058493;28;20874;-81
2024/02/28 11:10:10;;;;;;;20.73;17.23;;;;;;;;;;5059327;28;20381;-81
2024/02/28 11:12:37;;;;;;;19.88;17.08;;;;;;;;;;5058133;28;20381;-80
2024/02/28 11:15:06;;;;;;;23.30;17.88;;;;;;;;;;5058515;28;20381;-80
2024/02/28 11:17:33;;;;;;;20.75;16.70;;;;;;;;;;5058654;28;20402;-81
2024/02/28 11:19:59;;;;;;;20.95;16.55;;;;;;;;;;5057286;28;20373;-81
2024/02/28 11:22:28;;;;;;;18.92;16.33;;;;;;;;;;5058571;28;20377;-81
2024/02/28 11:24:55;;;;;;;21.27;16.73;;;;;;;;;;5058730;28;20471;-81
2024/02/28 11:27:22;;;;;;;22.57;16.97;;;;;;;;;;5059012;28;20389;-80
2024/02/28 11:29:49;;;;;;;23.65;17.73;;;;;;;;;;5058095;28;20382;-81
2024/02/28 11:32:15;;;;;;;18.95;16.40;;;;;;;;;;5058374;28;20439;-81
2024/02/28 11:34:42;;;;;;;19.30;16.73;;;;;;;;;;5055903;28;20393;-81
2024/02/28 11:37:09;;;;;;;21.13;16.52;;;;;;;;;;5057599;28;20488;-81
2024/02/28 11:39:36;;;;;;;18.90;15.73;;;;;;;;;;5057914;28;20828;-81
2024/02/28 11:42:17;;;;;;;18.33;15.68;;;;;;;;;;5058582;28;20393;-81
2024/02/28 11:44:43;;;;;;;20.67;15.95;;;;;;;;;;5058012;28;20427;-81
2024/02/28 11:47:12;;;;;;;20.50;16.45;;;;;;;;;;5058380;28;20397;-81
2024/02/28 11:49:39;;;;;;;21.83;16.02;;;;;;;;;;5058428;28;20455;-82
2024/02/28 11:52:05;;;;;;;20.45;16.02;;;;;;;;;;5057551;28;20468;-81
2024/02/28 11:54:31;;;;;;;19.55;15.85;;;;;;;;;;5057072;28;20397;-81
2024/02/28 11:56:57;;;;;;;18.50;16.00;;;;;;;;;;5058355;28;20412;-81
2024/02/28 11:59:23;;;;;;;19.07;15.80;;;;;;;;;;5056166;28;20378;-81
2024/02/28 12:01:51;;;;;;;18.02;15.43;;;;;;;;;;5057640;28;20377;-81
2024/02/28 12:04:17;;;;;;;19.80;15.82;;;;;;;;;;5057769;28;20370;-81
2024/02/28 12:06:43;;;;;;;19.63;15.30;;;;;;;;;;5058346;28;20392;-81
2024/02/28 12:09:16;;;;;;;17.48;15.18;;;;;;;;;;5057638;28;20385;-81
2024/02/28 12:11:42;;;;;;;18.20;15.13;;;;;;;;;;5057227;28;20922;-81
2024/02/28 12:14:11;;;;;;;16.83;14.27;;;;;;;;;;5056474;28;20385;-80
2024/02/28 12:16:38;;;;;;;16.58;14.48;;;;;;;;;;5057020;28;20413;-81
2024/02/28 12:19:09;;;;;;;19.10;14.95;;;;;;;;;;5057172;28;20381;-81
2024/02/28 12:21:35;;;;;;;16.65;14.55;;;;;;;;;;5057619;28;20456;-82
2024/02/28 12:24:01;;;;;;;15.68;13.27;;;;;;;;;;5056882;28;20421;-81
2024/02/28 12:26:28;;;;;;;14.97;13.47;;;;;;;;;;5057155;28;20390;-81
2024/02/28 12:28:53;;;;;;;16.88;14.50;;;;;;;;;;5056374;28;20754;-81
2024/02/28 12:31:21;;;;;;;16.77;14.80;;;;;;;;;;5056825;28;20439;-81
2024/02/28 12:33:47;;;;;;;14.82;13.20;;;;;;;;;;5057145;28;20386;-81
2024/02/28 12:36:13;;;;;;;13.10;11.80;;;;;;;;;;5057370;28;20404;-81
2024/02/28 12:38:41;;;;;;;13.40;12.07;;;;;;;;;;5056947;28;20867;-81
2024/02/28 12:41:07;;;;;;;11.97;10.80;;;;;;;;;;5055901;28;20465;-81
2024/02/28 12:43:33;;;;;;;23.73;18.90;;;;;;;;;;5056414;28;20795;-81
2024/02/28 12:45:59;;;;;;;14.93;13.00;;;;;;;;;;5056492;28;20381;-82
2024/02/28 12:48:25;;;;;;;15.85;13.65;;;;;;;;;;5056445;28;20447;-81
2024/02/28 12:50:51;;;;;;;14.40;12.75;;;;;;;;;;5054130;28;20386;-81
2024/02/28 12:53:17;;;;;;;15.35;13.75;;;;;;;;;;5055067;28;20747;-81
2024/02/28 12:55:44;;;;;;;19.95;16.52;;;;;;;;;;5056287;28;20412;-81
2024/02/28 12:58:10;;;;;;;18.58;15.35;;;;;;;;;;5053359;28;20409;-81
2024/02/28 13:00:36;;;;;;;17.27;15.40;;;;;;;;;;5055886;28;20412;-81
2024/02/28 13:03:03;;;;;;;16.52;14.73;;;;;;;;;;5055752;28;20713;-81
2024/02/28 13:05:29;;;;;;;18.35;15.35;;;;;;;;;;5056020;28;20417;-81
2024/02/28 13:07:55;;;;;;;16.27;14.55;;;;;;;;;;5055670;28;20388;-81
2024/02/28 13:10:22;;;;;;;13.80;12.52;;;;;;;;;;5055711;28;20488;-81
2024/02/28 13:12:48;;;;;;;14.07;12.68;;;;;;;;;;5056639;28;20381;-81
2024/02/28 13:15:14;;;;;;;14.35;12.95;;;;;;;;;;5056580;28;20389;-81
2024/02/28 13:17:43;;;;;;;16.33;14.10;;;;;;;;;;5056198;28;20807;-81
2024/02/28 13:20:09;;;;;;;19.42;15.43;;;;;;;;;;5055721;28;20833;-81
2024/02/28 13:22:35;;;;;;;16.48;14.73;;;;;;;;;;5056158;28;20480;-82
2024/02/28 13:25:01;;;;;;;17.17;14.73;;;;;;;;;;5056380;28;20420;-81
2024/02/28 13:27:27;;;;;;;18.33;15.50;;;;;;;;;;5056024;28;20904;-81
2024/02/28 13:29:53;;;;;;;19.55;15.40;;;;;;;;;;5056260;28;20697;-80
2024/02/28 13:32:19;;;;;;;20.50;16.67;;;;;;;;;;5055773;28;20381;-81
2024/02/28 13:34:45;;;;;;;17.88;15.38;;;;;;;;;;5056081;28;20400;-81
2024/02/28 13:37:11;;;;;;;17.83;15.70;;;;;;;;;;5054045;28;20405;-82
2024/02/28 13:39:37;;;;;;;19.98;15.85;;;;;;;;;;5056372;28;20381;-80
2024/02/28 13:42:06;;;;;;;18.50;15.82;;;;;;;;;;5054401;28;20373;-80
2024/02/28 13:44:32;;;;;;;19.55;16.13;;;;;;;;;;5055191;28;20381;-81
2024/02/28 13:46:58;;;;;;;19.00;15.65;;;;;;;;;;5054746;28;20427;-81
2024/02/28 13:49:24;;;;;;;20.83;16.48;;;;;;;;;;5055840;28;20405;-80
2024/02/28 13:51:51;;;;;;;18.98;15.80;;;;;;;;;;5056020;28;20377;-81
2024/02/28 13:54:17;;;;;;;21.27;16.02;;;;;;;;;;5055847;28;20381;-81
2024/02/28 13:56:43;;;;;;;20.30;16.40;;;;;;;;;;5051228;28;20777;-81
2024/02/28 13:59:09;;;;;;;19.27;16.33;;;;;;;;;;5035842;28;20383;-80
2024/02/28 14:01:36;;;;;;;18.60;15.60;;;;;;;;;;5035643;28;20375;-80
2024/02/28 14:04:03;;;;;;;19.02;15.77;;;;;;;;;;5036091;28;20379;-81
2024/02/28 14:06:30;;;;;;;18.67;15.98;;;;;;;;;;5035452;28;20390;-81
2024/02/28 14:08:56;;;;;;;19.77;15.40;;;;;;;;;;5034081;28;20528;-81
2024/02/28 14:11:23;;;;;;;17.83;15.38;;;;;;;;;;5035844;28;20414;-81